createdAt,value
2023-04-07T00:02:23.699Z,100817.84
2023-04-07T00:07:26.043Z,100813.50
2023-04-07T00:12:27.956Z,100821.28
2023-04-07T00:17:29.891Z,100812.47
2023-04-07T00:22:31.953Z,100819.72
2023-04-07T00:27:34.023Z,100820.44
2023-04-07T00:32:36.651Z,100809.88
2023-04-07T00:37:38.836Z,100814.34
2023-04-07T00:42:41.050Z,100811.56
2023-04-07T00:47:43.141Z,100805.47
2023-04-07T00:52:46.252Z,100811.69
2023-04-07T00:57:48.244Z,100806.38
2023-04-07T01:03:13.420Z,100805.47
2023-04-07T01:08:35.994Z,100814.34
2023-04-07T01:13:45.366Z,100816.09
2023-04-07T01:18:51.384Z,100812.53
2023-04-07T01:24:14.392Z,100822.31
2023-04-07T01:29:37.639Z,100819.13
2023-04-07T01:34:42.027Z,100821.66
2023-04-07T01:39:44.552Z,100822.47
2023-04-07T01:44:48.504Z,100823.47
2023-04-07T01:49:51.711Z,100829.63
2023-04-07T01:54:54.894Z,100825.97
2023-04-07T01:59:56.804Z,100831.28
2023-04-07T02:05:06.157Z,100836.63
2023-04-07T02:10:12.430Z,100823.47
2023-04-07T02:15:16.846Z,100832.91
2023-04-07T02:20:20.771Z,100832.91
2023-04-07T02:25:31.292Z,100841.88
2023-04-07T02:30:33.935Z,100836.63
2023-04-07T02:35:36.356Z,100840.94
2023-04-07T02:40:38.421Z,100839.22
2023-04-07T02:45:40.654Z,100835.78
2023-04-07T02:50:42.989Z,100846.25
2023-04-07T02:55:45.007Z,100837.44
2023-04-07T03:00:49.652Z,100844.69
2023-04-07T03:05:52.735Z,100845.53
2023-04-07T03:10:54.768Z,100847.13
2023-04-07T03:15:57.396Z,100850.84
2023-04-07T03:20:59.658Z,100848.13
2023-04-07T03:26:01.503Z,100841.88
2023-04-07T03:31:04.307Z,100840.28
2023-04-07T03:36:06.933Z,100854.56
2023-04-07T03:41:09.029Z,100853.63
2023-04-07T03:46:11.251Z,100849.00
2023-04-07T03:51:13.541Z,100849.84
2023-04-07T03:56:15.608Z,100852.75
2023-04-07T04:01:17.526Z,100857.16
2023-04-07T04:06:19.449Z,100850.00
2023-04-07T04:11:22.454Z,100863.31
2023-04-07T04:16:24.531Z,100856.09
2023-04-07T04:21:27.603Z,100875.44
2023-04-07T04:26:30.203Z,100871.88
2023-04-07T04:31:32.474Z,100866.88
2023-04-07T04:36:35.620Z,100873.94
2023-04-07T04:41:38.527Z,100882.75
2023-04-07T04:46:40.451Z,100881.91
2023-04-07T04:51:42.633Z,100896.88
2023-04-07T04:56:44.776Z,100899.66
2023-04-07T05:01:47.465Z,100903.91
2023-04-07T05:06:49.683Z,100913.31
2023-04-07T05:11:51.578Z,100910.03
2023-04-07T05:16:54.653Z,100908.38
2023-04-07T05:21:56.841Z,100917.13
2023-04-07T05:26:59.104Z,100913.69
2023-04-07T05:32:02.174Z,100919.78
2023-04-07T05:37:04.411Z,100926.00
2023-04-07T05:42:06.646Z,100931.38
2023-04-07T05:47:09.542Z,100932.09
2023-04-07T05:52:12.388Z,100934.91
2023-04-07T05:57:14.809Z,100936.75
2023-04-07T06:02:16.880Z,100938.41
2023-04-07T06:07:18.894Z,100943.78
2023-04-07T06:12:21.041Z,100950.88
2023-04-07T06:17:23.868Z,100950.81
2023-04-07T06:22:25.961Z,100958.69
2023-04-07T06:27:29.111Z,100971.16
2023-04-07T06:32:31.317Z,100971.75
2023-04-07T06:37:33.361Z,100976.63
2023-04-07T06:42:35.301Z,100975.75
2023-04-07T06:47:38.557Z,100983.25
2023-04-07T06:52:40.691Z,100988.63
2023-04-07T06:57:42.907Z,100990.53
2023-04-07T07:02:45.315Z,100998.50
2023-04-07T07:07:47.214Z,101009.00
2023-04-07T07:12:52.598Z,101016.28
2023-04-07T07:17:54.459Z,101019.88
2023-04-07T07:22:57.044Z,101031.41
2023-04-07T07:27:59.181Z,101038.31
2023-04-07T07:33:01.555Z,101033.88
2023-04-07T07:38:03.922Z,101042.91
2023-04-07T07:43:07.038Z,101039.91
2023-04-07T07:48:08.939Z,101040.16
2023-04-07T07:53:11.322Z,101046.34
2023-04-07T07:58:13.205Z,101042.56
2023-04-07T08:03:17.423Z,101061.13
2023-04-07T08:08:19.479Z,101050.66
2023-04-07T08:13:21.709Z,101046.22
2023-04-07T08:18:24.017Z,101057.56
2023-04-07T08:23:26.419Z,101060.34
2023-04-07T08:28:28.791Z,101063.78
2023-04-07T08:33:31.003Z,101068.38
2023-04-07T08:38:33.056Z,101078.84
2023-04-07T08:43:37.193Z,101079.72
2023-04-07T08:48:39.695Z,101088.72
2023-04-07T08:53:50.477Z,101092.97
2023-04-07T08:58:53.130Z,101084.16
2023-04-07T09:03:58.536Z,101093.84
2023-04-07T09:09:01.129Z,101092.97
2023-04-07T09:14:03.452Z,101092.97
2023-04-07T09:19:06.760Z,101087.56
2023-04-07T09:24:35.031Z,101090.28
2023-04-07T09:29:37.080Z,101098.19
2023-04-07T09:34:41.394Z,101093.69
2023-04-07T09:39:51.820Z,101096.25
2023-04-07T09:44:53.921Z,101092.78
2023-04-07T09:49:57.158Z,101097.25
2023-04-07T09:54:59.348Z,101098.00
2023-04-07T10:00:01.875Z,101109.41
2023-04-07T10:05:04.239Z,101098.84
2023-04-07T10:10:08.687Z,101100.50
2023-04-07T10:15:14.230Z,101092.47
2023-04-07T10:20:21.452Z,101098.72
2023-04-07T10:25:27.045Z,101097.13
2023-04-07T10:30:33.092Z,101093.44
2023-04-07T10:36:07.633Z,101105.09
2023-04-07T10:41:39.276Z,101106.69
2023-04-07T10:46:52.264Z,101114.66
2023-04-07T10:52:12.704Z,101109.34
2023-04-07T10:57:16.351Z,101112.00
2023-04-07T11:02:39.910Z,101113.84
2023-04-07T11:07:55.614Z,101119.97
2023-04-07T11:13:05.276Z,101122.25
2023-04-07T11:18:18.239Z,101126.19
2023-04-07T11:23:25.643Z,101133.25
2023-04-07T11:28:28.377Z,101133.03
2023-04-07T11:33:35.243Z,101135.63
2023-04-07T11:38:38.878Z,101131.03
2023-04-07T11:43:43.862Z,101133.25
2023-04-07T11:48:47.566Z,101136.84
2023-04-07T11:53:55.736Z,101147.31
2023-04-07T11:58:58.505Z,101152.38
2023-04-07T12:04:05.168Z,101154.97
2023-04-07T12:09:08.170Z,101160.53
2023-04-07T12:14:10.106Z,101154.22
2023-04-07T12:19:12.409Z,101153.94
2023-04-07T12:24:14.928Z,101159.34
2023-04-07T12:29:18.565Z,101160.09
2023-04-07T12:34:21.264Z,101158.69
2023-04-07T12:39:23.459Z,101168.25
2023-04-07T12:44:25.775Z,101165.16
2023-04-07T12:49:28.962Z,101166.31
2023-04-07T12:54:30.902Z,101167.47
2023-04-07T12:59:33.017Z,101169.56
2023-04-07T13:04:37.240Z,101171.78
2023-04-07T13:09:40.889Z,101169.72
2023-04-07T13:14:57.053Z,101176.94
2023-04-07T13:20:02.410Z,101182.19
2023-04-07T13:25:04.829Z,101181.63
2023-04-07T13:30:07.668Z,101194.13
2023-04-07T13:35:09.815Z,101194.97
2023-04-07T13:40:13.017Z,101190.66
2023-04-07T13:45:15.292Z,101189.81
2023-04-07T13:50:17.545Z,101192.59
2023-04-07T13:55:20.791Z,101191.91
2023-04-07T14:00:22.824Z,101189.75
2023-04-07T14:05:25.038Z,101197.31
2023-04-07T14:10:27.789Z,101202.53
2023-04-07T14:15:29.782Z,101200.53
2023-04-07T14:20:31.780Z,101199.19
2023-04-07T14:25:33.953Z,101205.34
2023-04-07T14:30:39.010Z,101202.09
2023-04-07T14:35:41.058Z,101200.59
2023-04-07T14:40:43.342Z,101207.09
2023-04-07T14:45:46.306Z,101199.56
2023-04-07T14:50:53.827Z,101199.44
2023-04-07T14:56:04.888Z,101205.25
2023-04-07T15:01:07.369Z,101204.25
2023-04-07T15:06:10.378Z,101212.41
2023-04-07T15:11:13.437Z,101213.22
2023-04-07T15:16:16.183Z,101223.50
2023-04-07T15:21:19.377Z,101227.16
2023-04-07T15:26:22.020Z,101221.13
2023-04-07T15:31:25.643Z,101224.75
2023-04-07T15:36:27.707Z,101222.84
2023-04-07T15:41:30.095Z,101224.75
2023-04-07T15:46:35.104Z,101229.63
2023-04-07T15:51:37.300Z,101226.53
2023-04-07T15:56:39.413Z,101234.13
2023-04-07T16:01:41.709Z,101241.97
2023-04-07T16:06:43.892Z,101248.09
2023-04-07T16:11:45.856Z,101252.47
2023-04-07T16:16:47.855Z,101257.41
2023-04-07T16:21:49.855Z,101255.38
2023-04-07T16:26:52.820Z,101258.22
2023-04-07T16:31:54.823Z,101270.53
2023-04-07T16:37:00.106Z,101275.09
2023-04-07T16:42:02.572Z,101280.34
2023-04-07T16:47:04.675Z,101278.75
2023-04-07T16:52:06.654Z,101284.78
2023-04-07T16:57:08.701Z,101287.25
2023-04-07T17:02:13.442Z,101301.84
2023-04-07T17:07:15.652Z,101301.16
2023-04-07T17:12:17.612Z,101304.59
2023-04-07T17:17:19.627Z,101315.03
2023-04-07T17:22:21.539Z,101313.28
2023-04-07T17:27:23.509Z,101325.03
2023-04-07T17:32:26.613Z,101330.97
2023-04-07T17:37:29.062Z,101330.03
2023-04-07T17:42:31.248Z,101337.91
2023-04-07T17:47:33.205Z,101347.91
2023-04-07T17:52:35.441Z,101347.03
2023-04-07T17:57:37.845Z,101358.03
2023-04-07T18:02:41.022Z,101348.84
2023-04-07T18:07:43.138Z,101361.22
2023-04-07T18:12:45.859Z,101362.22
2023-04-07T18:17:53.225Z,101372.09
2023-04-07T18:22:56.107Z,101376.53
2023-04-07T18:27:59.152Z,101374.94
2023-04-07T18:33:01.206Z,101386.34
2023-04-07T18:38:04.994Z,101391.66
2023-04-07T18:43:07.213Z,101396.88
2023-04-07T18:48:09.216Z,101400.44
2023-04-07T18:53:12.086Z,101416.28
2023-04-07T18:58:14.940Z,101413.63
2023-04-07T19:03:17.100Z,101425.06
2023-04-07T19:08:19.231Z,101436.59
2023-04-07T19:13:21.187Z,101439.25
2023-04-07T19:18:23.308Z,101447.16
2023-04-07T19:23:25.783Z,101455.09
2023-04-07T19:28:28.264Z,101447.22
2023-04-07T19:33:30.531Z,101449.81
2023-04-07T19:38:32.612Z,101453.50
2023-04-07T19:43:34.539Z,101460.63
2023-04-07T19:48:37.531Z,101462.50
2023-04-07T19:53:39.468Z,101469.50
2023-04-07T19:58:41.251Z,101468.69
2023-04-07T20:03:43.454Z,101483.75
2023-04-07T20:08:45.362Z,101483.63
2023-04-07T20:13:48.134Z,101489.88
2023-04-07T20:18:51.776Z,101488.19
2023-04-07T20:23:54.031Z,101493.38
2023-04-07T20:28:56.177Z,101498.06
2023-04-07T20:33:59.895Z,101506.41
2023-04-07T20:39:02.076Z,101514.31
2023-04-07T20:44:04.582Z,101514.53
2023-04-07T20:49:08.187Z,101515.44
2023-04-07T20:54:10.222Z,101519.72
2023-04-07T20:59:12.339Z,101517.19
2023-04-07T21:04:14.563Z,101518.22
2023-04-07T21:09:16.800Z,101523.47
2023-04-07T21:14:18.822Z,101519.72
2023-04-07T21:19:21.095Z,101526.84
2023-04-07T21:24:23.285Z,101526.25
2023-04-07T21:29:25.113Z,101527.09
2023-04-07T21:34:27.361Z,101528.88
2023-04-07T21:39:29.484Z,101524.59
2023-04-07T21:44:32.229Z,101531.75
2023-04-07T21:49:34.197Z,101527.44
2023-04-07T21:54:36.848Z,101531.94
2023-04-07T21:59:39.290Z,101531.94
2023-04-07T22:04:41.206Z,101532.81
2023-04-07T22:09:43.375Z,101535.56
2023-04-07T22:14:45.795Z,101534.59
2023-04-07T22:19:47.927Z,101536.22
2023-04-07T22:24:50.122Z,101544.38
2023-04-07T22:29:52.051Z,101547.06
2023-04-07T22:34:54.104Z,101552.34
2023-04-07T22:39:56.261Z,101547.00
2023-04-07T22:44:58.110Z,101548.66
2023-04-07T22:49:59.985Z,101547.00
2023-04-07T22:55:02.059Z,101547.84
2023-04-07T23:00:04.810Z,101552.34
2023-04-07T23:05:12.967Z,101550.69
2023-04-07T23:10:14.884Z,101560.28
2023-04-07T23:15:16.916Z,101557.66
2023-04-07T23:20:18.921Z,101555.03
2023-04-07T23:25:22.820Z,101560.31
2023-04-07T23:30:24.842Z,101566.44
2023-04-07T23:35:26.986Z,101566.53
2023-04-07T23:40:29.322Z,101568.28
2023-04-07T23:45:31.602Z,101563.91
2023-04-07T23:50:33.529Z,101567.47
2023-04-07T23:55:35.813Z,101571.84
